createdAt,value
2023-04-30T00:02:25.489Z,1.36
2023-04-30T00:04:56.040Z,1.37
2023-04-30T00:07:28.411Z,0.77
2023-04-30T00:09:58.973Z,1.38
2023-04-30T00:12:29.609Z,1.43
2023-04-30T00:15:00.141Z,1.43
2023-04-30T00:17:30.780Z,1.45
2023-04-30T00:20:01.440Z,1.45
2023-04-30T00:22:34.289Z,1.39
2023-04-30T00:25:04.882Z,1.42
2023-04-30T00:27:35.536Z,1.45
2023-04-30T00:30:06.487Z,1.45
2023-04-30T00:32:37.114Z,1.50
2023-04-30T00:35:08.093Z,1.09
2023-04-30T00:37:40.371Z,1.56
2023-04-30T00:40:11.994Z,1.60
2023-04-30T00:42:42.569Z,1.57
2023-04-30T00:45:13.682Z,1.50
2023-04-30T00:47:44.495Z,1.51
2023-04-30T00:50:16.739Z,1.51
2023-04-30T00:52:49.226Z,1.43
2023-04-30T00:55:20.917Z,1.35
2023-04-30T00:57:52.254Z,1.49
2023-04-30T01:00:25.952Z,1.52
2023-04-30T01:02:58.295Z,1.55
2023-04-30T01:05:29.268Z,1.59
2023-04-30T01:08:01.400Z,1.59
2023-04-30T01:10:45.224Z,1.53
2023-04-30T01:13:25.450Z,1.65
2023-04-30T01:16:03.257Z,1.66
2023-04-30T01:18:42.772Z,1.71
2023-04-30T01:21:15.258Z,1.65
2023-04-30T01:24:13.296Z,1.46
2023-04-30T01:27:02.406Z,1.62
2023-04-30T01:30:24.619Z,1.51
2023-04-30T01:32:57.886Z,1.61
2023-04-30T01:35:57.039Z,1.51
2023-04-30T01:38:44.819Z,1.58
2023-04-30T01:41:23.740Z,1.53
2023-04-30T01:44:05.704Z,1.48
2023-04-30T01:46:37.057Z,1.46
2023-04-30T01:49:18.617Z,1.50
2023-04-30T01:51:50.977Z,1.61
2023-04-30T01:54:31.978Z,1.62
2023-04-30T01:57:06.959Z,1.52
2023-04-30T01:59:41.294Z,1.65
2023-04-30T02:02:12.170Z,1.58
2023-04-30T02:04:44.780Z,1.58
2023-04-30T02:07:20.723Z,1.58
2023-04-30T02:09:51.799Z,1.52
2023-04-30T02:12:22.721Z,1.51
2023-04-30T02:14:53.750Z,1.58
2023-04-30T02:17:24.592Z,1.64
2023-04-30T02:19:57.265Z,1.54
2023-04-30T02:22:28.097Z,1.49
2023-04-30T02:24:59.032Z,1.77
2023-04-30T02:27:30.274Z,1.81
2023-04-30T02:30:01.665Z,1.75
2023-04-30T02:32:32.550Z,1.66
2023-04-30T02:35:05.391Z,1.47
2023-04-30T02:37:36.347Z,1.64
2023-04-30T02:40:07.728Z,1.53
2023-04-30T02:42:38.581Z,1.53
2023-04-30T02:45:10.460Z,1.48
2023-04-30T02:47:41.342Z,1.46
2023-04-30T02:50:14.516Z,1.46
2023-04-30T02:52:46.281Z,1.51
2023-04-30T02:55:17.776Z,1.45
2023-04-30T02:57:48.749Z,1.35
2023-04-30T03:00:19.906Z,1.27
2023-04-30T03:02:51.035Z,1.22
2023-04-30T03:05:23.673Z,1.16
2023-04-30T03:07:54.561Z,1.17
2023-04-30T03:10:25.428Z,1.17
2023-04-30T03:12:56.462Z,1.16
2023-04-30T03:15:27.523Z,1.12
2023-04-30T03:17:58.661Z,1.09
2023-04-30T03:20:31.341Z,0.95
2023-04-30T03:23:02.207Z,0.96
2023-04-30T03:25:33.157Z,0.94
2023-04-30T03:28:04.024Z,0.89
2023-04-30T03:30:35.181Z,0.91
2023-04-30T03:33:07.593Z,0.89
2023-04-30T03:35:40.537Z,0.92
2023-04-30T03:38:11.467Z,0.88
2023-04-30T03:40:42.498Z,0.88
2023-04-30T03:43:13.354Z,0.89
2023-04-30T03:45:44.395Z,0.94
2023-04-30T03:48:15.543Z,0.94
2023-04-30T03:50:48.169Z,0.86
2023-04-30T03:53:19.005Z,0.89
2023-04-30T03:55:49.999Z,0.87
2023-04-30T03:58:21.672Z,0.82
2023-04-30T04:00:52.729Z,0.49
2023-04-30T04:03:24.148Z,0.74
2023-04-30T04:05:56.709Z,0.60
2023-04-30T04:08:27.625Z,0.78
2023-04-30T04:10:58.730Z,0.74
2023-04-30T04:13:29.646Z,0.79
2023-04-30T04:16:00.751Z,0.78
2023-04-30T04:18:31.791Z,0.71
2023-04-30T04:21:04.671Z,0.70
2023-04-30T04:23:35.882Z,0.66
2023-04-30T04:26:07.780Z,0.62
2023-04-30T04:28:39.063Z,0.59
2023-04-30T04:31:09.871Z,0.55
2023-04-30T04:33:41.223Z,0.54
2023-04-30T04:36:14.470Z,0.51
2023-04-30T04:38:45.490Z,0.47
2023-04-30T04:41:16.423Z,0.56
2023-04-30T04:43:47.476Z,0.59
2023-04-30T04:46:18.741Z,0.72
2023-04-30T04:48:49.951Z,0.73
2023-04-30T04:51:22.450Z,0.76
2023-04-30T04:53:53.328Z,0.80
2023-04-30T04:56:24.324Z,0.78
2023-04-30T04:58:55.078Z,0.73
2023-04-30T05:01:26.101Z,0.67
2023-04-30T05:03:57.228Z,0.66
2023-04-30T05:06:34.886Z,0.67
2023-04-30T05:09:09.849Z,0.52
2023-04-30T05:11:42.457Z,0.66
2023-04-30T05:14:14.100Z,0.68
2023-04-30T05:16:45.573Z,0.61
2023-04-30T05:19:16.670Z,0.60
2023-04-30T05:21:49.498Z,0.52
2023-04-30T05:24:20.448Z,0.55
2023-04-30T05:26:51.473Z,0.56
2023-04-30T05:29:22.665Z,0.57
2023-04-30T05:31:53.666Z,0.55
2023-04-30T05:34:24.762Z,0.55
2023-04-30T05:36:57.672Z,0.58
2023-04-30T05:39:28.832Z,0.57
2023-04-30T05:41:59.846Z,0.58
2023-04-30T05:44:32.575Z,0.54
2023-04-30T05:47:03.639Z,0.55
2023-04-30T05:49:36.342Z,0.55
2023-04-30T05:52:09.220Z,0.53
2023-04-30T05:54:40.114Z,0.51
2023-04-30T05:57:10.832Z,0.55
2023-04-30T05:59:41.715Z,0.58
2023-04-30T06:02:13.045Z,0.53
2023-04-30T06:04:44.486Z,0.64
2023-04-30T06:07:17.101Z,0.68
2023-04-30T06:09:48.057Z,0.64
2023-04-30T06:12:19.063Z,0.72
2023-04-30T06:14:50.078Z,0.69
2023-04-30T06:17:21.126Z,0.73
2023-04-30T06:19:52.585Z,0.72
2023-04-30T06:22:25.629Z,0.81
2023-04-30T06:24:58.684Z,0.55
2023-04-30T06:27:30.706Z,0.76
2023-04-30T06:30:03.951Z,0.80
2023-04-30T06:32:34.818Z,0.83
2023-04-30T06:35:05.879Z,0.87
2023-04-30T06:37:38.775Z,0.73
2023-04-30T06:40:10.920Z,0.63
2023-04-30T06:42:42.638Z,0.83
2023-04-30T06:45:16.085Z,0.86
2023-04-30T06:47:48.576Z,0.89
2023-04-30T06:50:19.552Z,0.90
2023-04-30T06:52:52.183Z,0.85
2023-04-30T06:55:23.578Z,0.86
2023-04-30T06:57:55.471Z,0.79
2023-04-30T07:00:26.553Z,0.80
2023-04-30T07:02:58.250Z,0.77
2023-04-30T07:05:29.252Z,0.73
2023-04-30T07:08:02.316Z,0.74
2023-04-30T07:10:33.527Z,0.73
2023-04-30T07:13:04.679Z,0.69
2023-04-30T07:15:43.690Z,0.67
2023-04-30T07:18:14.895Z,0.60
2023-04-30T07:20:46.875Z,0.52
2023-04-30T07:23:19.158Z,0.56
2023-04-30T07:25:49.912Z,0.08
2023-04-30T07:28:23.216Z,0.52
2023-04-30T07:30:54.586Z,0.53
2023-04-30T07:33:25.322Z,0.53
2023-04-30T07:35:57.495Z,0.53
2023-04-30T07:38:30.263Z,0.51
2023-04-30T07:41:00.885Z,0.56
2023-04-30T07:43:32.032Z,0.59
2023-04-30T07:46:02.672Z,0.56
2023-04-30T07:48:33.672Z,0.58
2023-04-30T07:51:05.614Z,0.62
2023-04-30T07:53:37.888Z,0.63
2023-04-30T07:56:09.193Z,0.58
2023-04-30T07:58:39.786Z,0.37
2023-04-30T08:01:10.281Z,0.54
2023-04-30T08:03:40.912Z,0.52
2023-04-30T08:06:11.542Z,0.47
2023-04-30T08:08:43.735Z,0.47
2023-04-30T08:11:14.829Z,0.45
2023-04-30T08:13:45.489Z,0.42
2023-04-30T08:16:16.180Z,0.42
2023-04-30T08:18:47.502Z,0.35
2023-04-30T08:21:18.860Z,0.32
2023-04-30T08:23:51.022Z,0.40
2023-04-30T08:26:21.952Z,0.35
2023-04-30T08:28:52.524Z,0.29
2023-04-30T08:31:23.251Z,0.31
2023-04-30T08:33:53.718Z,0.31
2023-04-30T08:36:24.336Z,0.31
2023-04-30T08:38:56.421Z,0.33
2023-04-30T08:41:29.507Z,0.21
2023-04-30T08:44:04.785Z,0.27
2023-04-30T08:46:39.337Z,0.26
2023-04-30T08:49:10.200Z,0.23
2023-04-30T08:51:41.321Z,0.22
2023-04-30T08:54:16.093Z,0.16
2023-04-30T08:56:47.427Z,-0.02
2023-04-30T08:59:18.850Z,0.13
2023-04-30T09:01:51.245Z,0.10
2023-04-30T09:04:24.883Z,0.04
2023-04-30T09:07:00.845Z,-0.02
2023-04-30T09:09:40.202Z,-0.16
2023-04-30T09:12:19.525Z,-0.06
2023-04-30T09:15:16.056Z,-0.08
2023-04-30T09:17:52.549Z,-0.12
2023-04-30T09:20:24.923Z,-0.15
2023-04-30T09:23:09.759Z,-0.16
2023-04-30T09:25:49.671Z,-0.17
2023-04-30T09:28:20.193Z,-0.23
2023-04-30T09:30:50.643Z,-0.26
2023-04-30T09:33:25.735Z,-0.51
2023-04-30T09:39:36.839Z,-0.57
2023-04-30T09:42:26.412Z,-0.32
2023-04-30T09:45:23.087Z,-0.44
2023-04-30T09:48:15.822Z,-0.36
2023-04-30T09:50:48.518Z,-0.32
2023-04-30T09:53:21.118Z,-0.35
2023-04-30T09:55:53.520Z,-0.30
2023-04-30T09:58:30.244Z,-0.55
2023-04-30T10:01:03.713Z,-0.31
2023-04-30T10:03:35.522Z,-0.59
2023-04-30T10:06:06.496Z,-0.38
2023-04-30T10:09:06.295Z,-0.38
2023-04-30T10:11:56.208Z,-0.44
2023-04-30T10:14:37.293Z,-0.50
2023-04-30T10:17:16.760Z,-0.36
2023-04-30T10:20:01.036Z,-0.36
2023-04-30T10:22:35.661Z,-0.59
2023-04-30T10:25:06.433Z,-0.82
2023-04-30T10:27:39.759Z,-0.37
2023-04-30T10:30:24.748Z,-0.46
2023-04-30T10:33:10.963Z,-0.38
2023-04-30T10:35:49.668Z,-0.40
2023-04-30T10:38:31.932Z,-0.50
2023-04-30T10:41:03.798Z,-0.65
2023-04-30T10:43:36.252Z,-0.46
2023-04-30T10:46:08.566Z,-0.36
2023-04-30T10:48:42.216Z,-0.36
2023-04-30T10:51:13.316Z,-0.34
2023-04-30T10:53:46.701Z,-0.43
2023-04-30T10:56:34.138Z,-0.57
2023-04-30T10:59:05.464Z,-0.52
2023-04-30T11:02:00.783Z,-0.38
2023-04-30T11:04:31.749Z,-0.40
2023-04-30T11:07:19.455Z,-0.41
2023-04-30T11:09:52.347Z,-0.61
2023-04-30T11:12:31.371Z,-0.41
2023-04-30T11:15:08.773Z,-0.45
2023-04-30T11:17:41.327Z,-0.65
2023-04-30T11:20:16.509Z,-0.45
2023-04-30T11:22:51.653Z,-0.71
2023-04-30T11:25:24.979Z,-0.85
2023-04-30T11:28:01.787Z,-0.69
2023-04-30T11:30:36.430Z,-0.46
2023-04-30T11:33:08.995Z,-0.54
2023-04-30T11:35:41.004Z,-0.46
2023-04-30T11:38:15.108Z,-0.45
2023-04-30T11:40:46.704Z,-0.44
2023-04-30T11:43:32.681Z,-0.44
2023-04-30T11:46:09.956Z,-0.57
2023-04-30T11:48:54.128Z,-0.40
2023-04-30T11:51:38.238Z,-0.44
2023-04-30T11:54:18.080Z,-0.40
2023-04-30T11:57:10.997Z,-0.65
2023-04-30T11:59:45.932Z,-0.61
2023-04-30T12:02:32.088Z,-0.49
2023-04-30T12:05:05.044Z,-0.63
2023-04-30T12:07:35.772Z,-0.41
2023-04-30T12:10:16.263Z,-0.67
2023-04-30T12:12:52.003Z,-0.69
2023-04-30T12:15:27.468Z,-0.39
2023-04-30T12:18:00.772Z,-0.61
2023-04-30T12:20:36.048Z,-0.64
2023-04-30T12:23:06.859Z,-0.47
2023-04-30T12:25:44.825Z,-0.36
2023-04-30T12:28:16.059Z,-0.34
2023-04-30T12:30:57.566Z,-0.35
2023-04-30T12:33:32.939Z,-0.52
2023-04-30T12:36:05.402Z,-0.40
2023-04-30T12:38:40.584Z,-0.39
2023-04-30T12:41:18.336Z,-0.41
2023-04-30T12:43:48.978Z,-0.43
2023-04-30T12:50:45.803Z,-0.46
2023-04-30T12:53:20.647Z,-0.74
2023-04-30T12:56:17.844Z,-0.43
2023-04-30T12:58:52.154Z,-0.40
2023-04-30T13:01:28.526Z,-0.80
2023-04-30T13:03:59.512Z,-0.44
2023-04-30T13:06:38.169Z,-0.41
2023-04-30T13:09:13.451Z,-0.42
2023-04-30T13:11:46.597Z,-0.44
2023-04-30T13:14:26.143Z,-0.52
2023-04-30T13:16:57.224Z,-0.44
2023-04-30T13:19:46.530Z,-0.46
2023-04-30T13:22:19.129Z,-0.58
2023-04-30T13:25:04.090Z,-0.48
2023-04-30T13:27:52.757Z,-0.55
2023-04-30T13:30:23.301Z,-0.54
2023-04-30T13:32:54.555Z,-0.53
2023-04-30T13:35:27.013Z,-0.80
2023-04-30T13:37:58.977Z,-0.68
2023-04-30T13:40:34.203Z,-0.55
2023-04-30T13:43:05.534Z,-0.50
2023-04-30T13:45:39.552Z,-0.77
2023-04-30T13:48:21.469Z,-0.51
2023-04-30T13:50:52.870Z,-0.51
2023-04-30T13:53:23.777Z,-0.76
2023-04-30T13:55:57.585Z,-0.74
2023-04-30T13:59:02.862Z,-0.62
2023-04-30T14:01:59.892Z,-0.79
2023-04-30T14:04:32.022Z,-0.52
2023-04-30T14:07:15.298Z,-0.90
2023-04-30T14:09:59.687Z,-0.52
2023-04-30T14:12:37.645Z,-0.54
2023-04-30T14:15:09.201Z,-0.59
2023-04-30T14:17:51.097Z,-0.71
2023-04-30T14:20:25.786Z,-0.51
2023-04-30T14:23:02.075Z,-0.54
2023-04-30T14:25:33.932Z,-0.68
2023-04-30T14:28:06.709Z,-0.50
2023-04-30T14:30:37.531Z,-0.52
2023-04-30T14:33:12.184Z,-0.50
2023-04-30T14:35:47.621Z,-0.56
2023-04-30T14:38:18.794Z,-0.51
2023-04-30T14:40:52.050Z,-0.56
2023-04-30T14:43:24.524Z,-0.60
2023-04-30T14:45:58.402Z,-0.79
2023-04-30T14:48:29.062Z,-0.53
2023-04-30T14:51:03.784Z,-0.48
2023-04-30T14:53:34.446Z,-0.49
2023-04-30T14:56:08.055Z,-0.45
2023-04-30T14:58:44.171Z,-0.48
2023-04-30T15:05:16.728Z,-0.59
2023-04-30T15:08:00.971Z,-0.74
2023-04-30T15:10:35.655Z,-0.92
2023-04-30T15:13:06.714Z,-0.49
2023-04-30T15:15:43.578Z,-0.47
2023-04-30T15:18:15.932Z,-0.64
2023-04-30T15:20:48.047Z,-0.41
2023-04-30T15:23:19.335Z,-0.43
2023-04-30T15:25:50.126Z,-0.36
2023-04-30T15:28:21.685Z,-0.34
2023-04-30T15:30:56.978Z,-0.41
2023-04-30T15:33:29.759Z,-0.34
2023-04-30T15:36:01.219Z,-0.48
2023-04-30T15:38:32.310Z,-0.44
2023-04-30T15:41:02.836Z,-0.41
2023-04-30T15:43:33.821Z,-0.41
2023-04-30T15:46:06.168Z,-0.39
2023-04-30T15:48:36.716Z,-0.38
2023-04-30T15:51:07.318Z,-0.30
2023-04-30T15:53:37.840Z,-0.41
2023-04-30T15:56:09.776Z,-0.39
2023-04-30T15:58:42.706Z,-0.57
2023-04-30T16:01:14.913Z,-0.24
2023-04-30T16:03:45.584Z,-0.17
2023-04-30T16:06:16.555Z,-0.11
2023-04-30T16:08:48.439Z,-0.06
2023-04-30T16:11:20.598Z,-0.36
2023-04-30T16:13:51.145Z,-0.11
2023-04-30T16:16:23.406Z,-0.12
2023-04-30T16:18:54.154Z,-0.07
2023-04-30T16:21:24.981Z,-0.10
2023-04-30T16:23:55.603Z,-0.16
2023-04-30T16:26:34.102Z,-0.12
2023-04-30T16:29:05.300Z,-0.11
2023-04-30T16:31:48.798Z,-0.36
2023-04-30T16:34:25.501Z,-0.10
2023-04-30T16:36:56.575Z,-0.11
2023-04-30T16:39:27.170Z,-0.12
2023-04-30T16:41:57.713Z,-0.11
2023-04-30T16:44:28.278Z,-0.03
2023-04-30T16:47:01.758Z,-0.06
2023-04-30T16:49:32.328Z,-0.04
2023-04-30T16:52:03.186Z,-0.03
2023-04-30T16:54:33.969Z,-0.01
2023-04-30T16:57:05.937Z,0.01
2023-04-30T16:59:36.439Z,0.04
2023-04-30T17:02:10.314Z,0.05
2023-04-30T17:04:41.001Z,0.03
2023-04-30T17:07:14.461Z,0.06
2023-04-30T17:09:45.151Z,0.07
2023-04-30T17:12:16.706Z,0.01
2023-04-30T17:14:47.253Z,0.10
2023-04-30T17:17:19.318Z,0.04
2023-04-30T17:19:49.766Z,0.02
2023-04-30T17:22:20.963Z,-0.02
2023-04-30T17:24:51.719Z,-0.08
2023-04-30T17:27:24.764Z,-0.03
2023-04-30T17:29:58.512Z,-0.06
2023-04-30T17:32:30.999Z,-0.06
2023-04-30T17:35:02.413Z,-0.05
2023-04-30T17:37:32.934Z,-0.06
2023-04-30T17:40:06.903Z,-0.03
2023-04-30T17:42:37.664Z,-0.01
2023-04-30T17:45:11.745Z,-0.26
2023-04-30T17:47:43.990Z,-0.02
2023-04-30T17:50:17.903Z,0.01
2023-04-30T17:52:48.717Z,-0.07
2023-04-30T17:55:19.827Z,-0.09
2023-04-30T17:57:50.353Z,-0.05
2023-04-30T18:00:30.124Z,-0.07
2023-04-30T18:03:03.029Z,-0.08
2023-04-30T18:05:35.451Z,-0.29
2023-04-30T18:08:11.455Z,-0.68
2023-04-30T18:10:42.847Z,-0.05
2023-04-30T18:13:17.398Z,-0.03
2023-04-30T18:15:54.358Z,-0.01
2023-04-30T18:18:30.451Z,0.00
2023-04-30T18:21:05.463Z,0.01
2023-04-30T18:23:39.769Z,0.04
2023-04-30T18:26:19.092Z,0.06
2023-04-30T18:28:56.536Z,0.07
2023-04-30T18:31:32.554Z,0.07
2023-04-30T18:34:11.031Z,0.09
2023-04-30T18:36:44.622Z,0.04
2023-04-30T18:39:32.194Z,0.14
2023-04-30T18:42:03.381Z,0.10
2023-04-30T18:44:36.293Z,0.12
2023-04-30T18:47:09.115Z,0.12
2023-04-30T18:49:44.746Z,0.07
2023-04-30T18:52:15.537Z,0.13
2023-04-30T18:54:51.966Z,0.16
2023-04-30T18:57:45.749Z,0.07
2023-04-30T19:00:17.954Z,0.18
2023-04-30T19:02:49.056Z,0.24
2023-04-30T19:05:22.517Z,0.28
2023-04-30T19:07:54.094Z,0.32
2023-04-30T19:10:25.591Z,0.39
2023-04-30T19:12:57.131Z,0.41
2023-04-30T19:15:30.848Z,0.42
2023-04-30T19:18:02.830Z,0.41
2023-04-30T19:20:36.358Z,0.45
2023-04-30T19:23:08.024Z,0.38
2023-04-30T19:25:41.165Z,0.37
2023-04-30T19:28:13.270Z,0.37
2023-04-30T19:30:45.168Z,0.36
2023-04-30T19:33:17.402Z,0.36
2023-04-30T19:35:54.808Z,0.46
2023-04-30T19:38:26.654Z,0.50
2023-04-30T19:40:57.824Z,0.44
2023-04-30T19:43:28.411Z,0.48
2023-04-30T19:46:00.212Z,0.47
2023-04-30T19:48:31.966Z,0.42
2023-04-30T19:51:07.107Z,0.39
2023-04-30T19:53:37.832Z,0.19
2023-04-30T19:56:08.681Z,0.28
2023-04-30T19:58:39.273Z,0.42
2023-04-30T20:01:09.815Z,0.43
2023-04-30T20:03:42.155Z,0.42
2023-04-30T20:06:14.708Z,0.10
2023-04-30T20:08:45.292Z,0.40
2023-04-30T20:11:15.717Z,0.38
2023-04-30T20:13:46.203Z,0.41
2023-04-30T20:16:19.874Z,0.36
2023-04-30T20:18:50.611Z,0.34
2023-04-30T20:21:25.331Z,0.33
2023-04-30T20:23:55.808Z,0.34
2023-04-30T20:26:26.624Z,0.32
2023-04-30T20:28:57.294Z,0.36
2023-04-30T20:31:31.975Z,0.39
2023-04-30T20:34:02.475Z,0.43
2023-04-30T20:36:34.728Z,0.51
2023-04-30T20:39:05.247Z,0.59
2023-04-30T20:41:36.040Z,0.59
2023-04-30T20:44:06.635Z,0.57
2023-04-30T20:46:37.759Z,0.59
2023-04-30T20:49:08.329Z,0.61
2023-04-30T20:51:40.979Z,0.49
2023-04-30T20:54:11.796Z,0.66
2023-04-30T20:56:44.239Z,0.74
2023-04-30T20:59:14.742Z,0.71
2023-04-30T21:01:45.227Z,0.84
2023-04-30T21:04:15.897Z,0.87
2023-04-30T21:06:48.199Z,0.88
2023-04-30T21:09:18.920Z,0.93
2023-04-30T21:11:49.784Z,0.97
2023-04-30T21:14:20.416Z,1.07
2023-04-30T21:16:52.129Z,1.01
2023-04-30T21:19:22.704Z,1.11
2023-04-30T21:21:55.046Z,1.13
2023-04-30T21:24:26.101Z,1.06
2023-04-30T21:26:56.657Z,1.09
2023-04-30T21:29:27.302Z,1.10
2023-04-30T21:31:58.467Z,1.12
2023-04-30T21:34:29.009Z,1.15
2023-04-30T21:37:01.283Z,1.25
2023-04-30T21:39:33.142Z,1.07
2023-04-30T21:42:05.244Z,1.35
2023-04-30T21:44:36.956Z,1.37
2023-04-30T21:47:09.114Z,1.42
2023-04-30T21:49:39.742Z,1.44
2023-04-30T21:52:12.421Z,1.32
2023-04-30T21:54:42.909Z,1.56
2023-04-30T21:57:13.511Z,1.55
2023-04-30T21:59:46.421Z,1.54
2023-04-30T22:02:23.730Z,1.61
2023-04-30T22:04:56.278Z,1.66
2023-04-30T22:07:29.335Z,1.77
2023-04-30T22:10:00.530Z,1.79
2023-04-30T22:12:31.043Z,1.78
2023-04-30T22:15:01.850Z,1.70
2023-04-30T22:17:33.450Z,1.60
2023-04-30T22:20:04.256Z,1.76
2023-04-30T22:22:37.216Z,1.82
2023-04-30T22:25:08.476Z,1.20
2023-04-30T22:27:39.032Z,1.83
2023-04-30T22:30:10.739Z,1.88
2023-04-30T22:32:41.248Z,1.98
2023-04-30T22:35:13.386Z,1.97
2023-04-30T22:37:46.533Z,2.04
2023-04-30T22:40:17.457Z,2.06
2023-04-30T22:42:48.167Z,2.23
2023-04-30T22:45:18.769Z,2.30
2023-04-30T22:47:49.490Z,2.32
2023-04-30T22:50:20.119Z,2.46
2023-04-30T22:52:53.932Z,2.63
2023-04-30T22:55:25.898Z,2.73
2023-04-30T22:57:57.317Z,2.70
2023-04-30T23:00:27.848Z,2.85
2023-04-30T23:02:58.440Z,2.92
2023-04-30T23:05:28.953Z,2.85
2023-04-30T23:08:01.155Z,2.89
2023-04-30T23:10:31.682Z,2.92
2023-04-30T23:13:02.224Z,3.11
2023-04-30T23:15:32.726Z,3.26
2023-04-30T23:18:03.277Z,3.32
2023-04-30T23:20:33.943Z,3.22
2023-04-30T23:23:08.910Z,3.65
2023-04-30T23:25:39.448Z,3.77
2023-04-30T23:28:09.989Z,3.75
2023-04-30T23:30:41.476Z,4.08
2023-04-30T23:33:11.977Z,4.15
2023-04-30T23:35:45.148Z,4.05
2023-04-30T23:38:17.608Z,3.84
2023-04-30T23:40:48.664Z,4.11
2023-04-30T23:43:19.188Z,4.39
2023-04-30T23:45:49.777Z,4.69
2023-04-30T23:48:21.212Z,4.88
2023-04-30T23:51:05.467Z,5.05
2023-04-30T23:53:37.908Z,5.34
2023-04-30T23:56:09.334Z,5.44
2023-04-30T23:58:39.906Z,5.28
